Time;durP1;ratioP1;P1;durP2;ratioP2;P2;SDS_P1;SDS_P2;PMS_P1;PMS_P2;Temp;Humidity;BMP_temperature;BMP_pressure;BME280_temperature;BME280_humidity;BME280_pressure;Samples;Min_cycle;Max_cycle;Signal;HPM_P1;HPM_P2
2022/01/17 00:02:24;;;;;;;1.83;1.17;;;5.70;99.90;;;;;;4440434;32;20056;-66
2022/01/17 00:04:49;;;;;;;2.53;1.37;;;5.70;99.90;;;;;;4427547;32;20807;-68
2022/01/17 00:07:15;;;;;;;1.77;1.27;;;5.80;99.90;;;;;;4441603;32;20097;-68
2022/01/17 00:09:41;;;;;;;1.60;0.80;;;5.70;99.90;;;;;;4440583;32;20422;-68
2022/01/17 00:12:09;;;;;;;1.95;1.20;;;5.80;99.90;;;;;;4441154;32;20073;-67
2022/01/17 00:14:39;;;;;;;0.70;0.70;;;5.80;99.90;;;;;;4440375;32;20102;-68
2022/01/17 00:17:22;;;;;;;2.08;0.80;;;5.80;99.90;;;;;;4440829;32;20537;-68
2022/01/17 00:19:53;;;;;;;1.25;0.90;;;5.80;99.90;;;;;;4427226;32;20094;-67
2022/01/17 00:22:20;;;;;;;1.45;0.85;;;5.80;99.90;;;;;;4428010;32;20065;-67
2022/01/17 00:24:46;;;;;;;6.93;1.15;;;5.90;99.90;;;;;;4440108;32;20310;-68
2022/01/17 00:27:13;;;;;;;28.62;3.92;;;5.90;99.90;;;;;;4427350;32;20069;-68
2022/01/17 00:29:38;;;;;;;0.77;0.77;;;5.90;99.90;;;;;;4442808;32;20061;-68
2022/01/17 00:32:04;;;;;;;0.85;0.85;;;6.00;99.90;;;;;;4441217;32;20616;-68
2022/01/17 00:34:30;;;;;;;0.47;0.47;;;6.00;99.90;;;;;;4440093;32;20069;-68
2022/01/17 00:36:55;;;;;;;2.03;1.48;;;6.00;99.90;;;;;;4428867;32;20073;-66
2022/01/17 00:39:21;;;;;;;0.70;0.70;;;6.00;99.90;;;;;;4426295;32;20113;-68
2022/01/17 00:41:47;;;;;;;0.68;0.68;;;6.00;99.90;;;;;;4441825;32;20609;-68
2022/01/17 00:44:15;;;;;;;1.42;1.33;;;6.00;99.90;;;;;;4427001;32;20207;-67
2022/01/17 00:46:41;;;;;;;1.73;0.95;;;6.10;99.90;;;;;;4441155;32;20084;-67
2022/01/17 00:49:06;;;;;;;1.83;1.48;;;6.10;99.90;;;;;;4442810;32;20064;-67
2022/01/17 00:51:32;;;;;;;3.30;0.75;;;6.10;99.90;;;;;;4426580;32;20069;-67
2022/01/17 00:53:58;;;;;;;0.80;0.80;;;6.20;99.90;;;;;;4442014;32;20105;-67
2022/01/17 00:56:23;;;;;;;1.00;0.90;;;6.20;99.90;;;;;;4440866;32;20152;-67
2022/01/17 00:58:49;;;;;;;1.52;0.65;;;6.20;99.90;;;;;;4441560;32;20068;-67
2022/01/17 01:01:15;;;;;;;1.37;0.90;;;6.20;99.90;;;;;;4439944;32;20076;-67
2022/01/17 01:03:41;;;;;;;2.72;1.35;;;6.20;99.90;;;;;;4441229;32;20454;-67
2022/01/17 01:06:07;;;;;;;0.93;0.80;;;6.20;99.90;;;;;;4426365;32;20077;-67
2022/01/17 01:08:33;;;;;;;2.50;1.42;;;6.20;99.90;;;;;;4440977;32;20097;-67
2022/01/17 01:10:58;;;;;;;2.55;1.55;;;6.20;99.90;;;;;;4442308;32;20127;-67
2022/01/17 01:13:27;;;;;;;0.80;0.80;;;6.20;99.90;;;;;;4441163;32;20142;-67
2022/01/17 01:18:39;;;;;;;1.65;0.50;;;6.30;99.90;;;;;;4440002;32;20119;-68
2022/01/17 01:21:39;;;;;;;0.40;0.40;;;6.30;99.90;;;;;;4441938;32;20064;-68
2022/01/17 01:27:41;;;;;;;0.55;0.55;;;6.40;99.90;;;;;;4428370;32;20069;-68
2022/01/17 01:29:27;;;;;;;0.30;0.30;;;6.40;99.90;;;;;;4428012;32;20077;-68
2022/01/17 01:32:04;;;;;;;1.17;1.08;;;6.40;99.90;;;;;;4439982;32;20110;-68
2022/01/17 01:34:35;;;;;;;1.00;0.88;;;6.40;99.90;;;;;;4441105;32;20155;-68
2022/01/17 01:37:03;;;;;;;0.68;0.68;;;6.40;99.90;;;;;;4441834;32;20135;-68
2022/01/17 01:39:29;;;;;;;0.50;0.50;;;6.40;99.90;;;;;;4442542;32;20518;-68
2022/01/17 01:41:55;;;;;;;1.08;0.98;;;6.40;99.90;;;;;;4442309;32;20100;-68
2022/01/17 01:44:22;;;;;;;0.73;0.60;;;6.40;99.90;;;;;;4441734;32;20089;-68
2022/01/17 01:46:49;;;;;;;0.32;0.32;;;6.40;99.90;;;;;;4442080;32;20069;-68
2022/01/17 01:49:16;;;;;;;0.40;0.40;;;6.40;99.90;;;;;;4439574;32;20072;-68
2022/01/17 01:51:42;;;;;;;6.12;0.95;;;6.40;99.90;;;;;;4424322;32;20111;-68
2022/01/17 01:54:08;;;;;;;0.95;0.50;;;6.40;99.90;;;;;;4443934;32;20082;-68
2022/01/17 01:56:37;;;;;;;0.50;0.50;;;6.50;99.90;;;;;;4444061;32;20505;-68
2022/01/17 01:59:04;;;;;;;0.32;0.32;;;6.50;99.90;;;;;;4444491;32;20092;-69
2022/01/17 02:01:30;;;;;;;0.60;0.60;;;6.40;99.90;;;;;;4427753;32;20577;-68
2022/01/17 02:03:55;;;;;;;2.20;0.50;;;6.40;99.90;;;;;;4427757;32;20081;-68
2022/01/17 02:06:20;;;;;;;0.30;0.30;;;6.40;99.90;;;;;;4444410;32;20548;-68
2022/01/17 02:08:46;;;;;;;0.52;0.52;;;6.50;99.90;;;;;;4443892;32;20092;-68
2022/01/17 02:11:12;;;;;;;1.83;0.35;;;6.40;99.90;;;;;;4443220;32;20080;-68
2022/01/17 02:13:39;;;;;;;1.48;1.33;;;6.50;99.90;;;;;;4428481;32;20120;-68
2022/01/17 02:16:10;;;;;;;4.37;1.23;;;6.40;99.90;;;;;;4429708;32;20081;-68
2022/01/17 02:18:36;;;;;;;0.50;0.50;;;6.40;99.90;;;;;;4442667;32;20119;-68
2022/01/17 02:21:30;;;;;;;3.03;2.08;;;6.40;99.90;;;;;;4444871;32;20088;-68
2022/01/17 02:23:51;;;;;;;1.20;1.10;;;6.40;99.90;;;;;;4428827;32;20621;-68
2022/01/17 02:26:18;;;;;;;0.30;0.30;;;6.50;99.90;;;;;;4441156;32;20521;-68
2022/01/17 02:28:54;;;;;;;0.40;0.40;;;6.40;99.90;;;;;;4426745;32;20146;-68
2022/01/17 02:31:22;;;;;;;0.45;0.45;;;6.40;99.90;;;;;;4442943;32;20065;-68
2022/01/17 02:33:51;;;;;;;0.30;0.30;;;6.30;99.90;;;;;;4429737;32;20089;-66
2022/01/17 02:36:16;;;;;;;0.37;0.37;;;6.30;99.90;;;;;;4443736;32;20160;-67
2022/01/17 02:38:42;;;;;;;2.28;0.68;;;6.30;99.90;;;;;;4428956;32;20080;-67
2022/01/17 02:41:08;;;;;;;3.62;1.10;;;6.30;99.90;;;;;;4443723;32;20600;-68
2022/01/17 02:43:35;;;;;;;0.43;0.43;;;6.30;99.90;;;;;;4440917;32;20080;-68
2022/01/17 02:48:30;;;;;;;0.45;0.45;;;6.30;99.90;;;;;;4428681;32;20097;-69
2022/01/17 02:50:57;;;;;;;0.30;0.30;;;6.30;99.90;;;;;;4442262;32;20085;-68
2022/01/17 02:53:23;;;;;;;0.30;0.30;;;6.30;99.90;;;;;;4441250;32;20089;-68
2022/01/17 02:55:52;;;;;;;0.37;0.37;;;6.30;99.90;;;;;;4427142;32;20109;-68
2022/01/17 02:58:20;;;;;;;0.73;0.73;;;6.30;99.90;;;;;;4441770;32;20098;-68
2022/01/17 03:00:47;;;;;;;0.40;0.40;;;6.30;99.90;;;;;;4442636;32;20085;-68
2022/01/17 03:03:14;;;;;;;0.30;0.30;;;6.30;99.90;;;;;;4428376;32;20112;-68
2022/01/17 03:05:40;;;;;;;0.68;0.68;;;6.30;99.90;;;;;;4442782;32;20568;-68
2022/01/17 03:08:05;;;;;;;1.90;0.85;;;6.30;99.90;;;;;;4442849;32;20131;-68
2022/01/17 03:10:46;;;;;;;2.47;0.82;;;6.30;99.90;;;;;;4441984;32;20092;-68
2022/01/17 03:13:16;;;;;;;0.50;0.50;;;6.30;99.90;;;;;;4441975;32;20175;-68
2022/01/17 03:15:44;;;;;;;15.05;1.20;;;6.20;99.90;;;;;;4428842;32;20109;-68
2022/01/17 03:18:10;;;;;;;0.30;0.30;;;6.20;99.90;;;;;;4427742;32;20065;-69
2022/01/17 03:20:37;;;;;;;0.30;0.30;;;6.30;99.90;;;;;;4443538;32;20650;-68
2022/01/17 03:23:04;;;;;;;0.40;0.40;;;6.20;99.90;;;;;;4442511;32;20434;-68
2022/01/17 03:25:30;;;;;;;0.30;0.30;;;6.20;99.90;;;;;;4416096;32;20081;-68
2022/01/17 03:27:56;;;;;;;0.47;0.47;;;6.20;99.90;;;;;;4441208;32;20085;-68
2022/01/17 03:30:22;;;;;;;0.40;0.40;;;6.20;99.90;;;;;;4428015;32;20077;-67
2022/01/17 03:32:49;;;;;;;1.52;0.88;;;6.20;99.90;;;;;;4441109;32;20089;-67
2022/01/17 03:35:14;;;;;;;0.40;0.40;;;6.20;99.90;;;;;;4442078;32;20057;-67
2022/01/17 03:37:40;;;;;;;0.85;0.62;;;6.20;99.90;;;;;;4427190;32;20490;-68
2022/01/17 03:40:07;;;;;;;0.43;0.43;;;6.20;99.90;;;;;;4441725;32;20053;-67
2022/01/17 03:42:33;;;;;;;0.30;0.30;;;6.20;99.90;;;;;;4442266;32;20096;-67
2022/01/17 03:45:00;;;;;;;0.30;0.30;;;6.20;99.90;;;;;;4441879;32;20427;-67
2022/01/17 03:47:26;;;;;;;1.02;0.60;;;6.20;99.90;;;;;;4442826;32;20529;-68
2022/01/17 03:49:51;;;;;;;4.93;1.30;;;6.20;99.90;;;;;;4443492;32;20346;-68
2022/01/17 03:52:17;;;;;;;0.65;0.62;;;6.20;99.90;;;;;;4442716;32;20427;-68
2022/01/17 03:54:43;;;;;;;1.00;0.75;;;6.20;99.90;;;;;;4440243;32;20140;-67
2022/01/17 03:57:08;;;;;;;0.30;0.30;;;6.20;99.90;;;;;;4443867;32;20122;-68
2022/01/17 03:59:34;;;;;;;0.20;0.20;;;6.20;99.90;;;;;;4443318;32;20196;-68
2022/01/17 04:02:00;;;;;;;0.35;0.35;;;6.20;99.90;;;;;;4442397;32;20470;-68
2022/01/17 04:04:25;;;;;;;2.25;0.60;;;6.20;99.90;;;;;;4441895;32;20119;-68
2022/01/17 04:06:51;;;;;;;0.20;0.20;;;6.20;99.90;;;;;;4441422;32;20077;-68
2022/01/17 04:09:16;;;;;;;2.47;0.52;;;6.20;99.90;;;;;;4442575;32;20065;-68
2022/01/17 04:11:43;;;;;;;27.02;0.68;;;6.20;99.90;;;;;;4444714;32;20064;-67
2022/01/17 04:14:09;;;;;;;16.45;3.20;;;6.20;99.90;;;;;;4443578;32;20058;-67
2022/01/17 04:16:35;;;;;;;0.30;0.30;;;6.20;99.90;;;;;;4442527;32;20524;-68
2022/01/17 04:19:01;;;;;;;2.17;0.62;;;6.20;99.90;;;;;;4442684;32;20100;-68
2022/01/17 04:21:32;;;;;;;0.35;0.35;;;6.20;99.90;;;;;;4442964;32;20081;-68
2022/01/17 04:23:57;;;;;;;0.68;0.68;;;6.20;99.90;;;;;;4440668;32;20117;-68
2022/01/17 04:26:23;;;;;;;0.30;0.30;;;6.20;99.90;;;;;;4441167;32;20849;-68
2022/01/17 04:28:48;;;;;;;0.45;0.45;;;6.20;99.90;;;;;;4440547;32;20077;-68
2022/01/17 04:31:14;;;;;;;0.30;0.30;;;6.20;99.90;;;;;;4443085;32;20415;-68
2022/01/17 04:35:10;;;;;;;0.45;0.45;;;6.20;99.90;;;;;;4472731;32;102620;-68
2022/01/17 04:37:36;;;;;;;0.32;0.32;;;6.20;99.90;;;;;;4469588;32;20553;-68
2022/01/17 04:40:02;;;;;;;0.30;0.30;;;6.20;99.90;;;;;;4468035;32;20126;-67
2022/01/17 04:42:28;;;;;;;0.30;0.30;;;6.20;99.90;;;;;;4470137;32;20476;-67
2022/01/17 04:45:26;;;;;;;0.50;0.50;;;6.10;99.90;;;;;;4469120;32;20076;-67
2022/01/17 04:47:42;;;;;;;0.40;0.40;;;6.20;99.90;;;;;;4460975;32;20521;-68
2022/01/17 04:50:11;;;;;;;0.30;0.30;;;6.10;99.90;;;;;;4468792;32;20656;-67
2022/01/17 04:52:37;;;;;;;0.30;0.30;;;6.20;99.90;;;;;;4456157;32;20077;-68
2022/01/17 04:55:06;;;;;;;0.30;0.30;;;6.10;99.90;;;;;;4451779;32;20428;-67
2022/01/17 04:57:32;;;;;;;1.55;1.05;;;6.10;99.90;;;;;;4451698;32;20064;-67
2022/01/17 04:59:58;;;;;;;0.30;0.30;;;6.10;99.90;;;;;;4451717;32;20479;-67
2022/01/17 05:02:24;;;;;;;0.60;0.60;;;6.10;99.90;;;;;;4439485;32;20072;-67
2022/01/17 05:04:51;;;;;;;4.10;0.82;;;6.10;99.90;;;;;;4451870;32;20491;-66
2022/01/17 05:07:16;;;;;;;1.12;0.70;;;6.10;99.90;;;;;;4452889;32;20092;-69
2022/01/17 05:09:43;;;;;;;0.40;0.40;;;6.10;99.90;;;;;;4454423;32;20077;-66
2022/01/17 05:12:10;;;;;;;0.28;0.28;;;6.10;99.90;;;;;;4454190;32;20568;-68
2022/01/17 05:14:39;;;;;;;1.42;1.08;;;6.10;99.90;;;;;;4452414;32;20489;-68
2022/01/17 05:17:24;;;;;;;1.33;1.23;;;6.10;99.90;;;;;;4454521;32;20163;-68
2022/01/17 05:19:54;;;;;;;0.30;0.30;;;6.10;99.90;;;;;;4452623;32;20081;-68
2022/01/17 05:22:20;;;;;;;1.67;0.95;;;6.10;99.90;;;;;;4445834;32;20076;-67
2022/01/17 05:24:45;;;;;;;0.30;0.30;;;6.10;99.90;;;;;;4450949;32;20060;-68
2022/01/17 05:27:12;;;;;;;0.57;0.50;;;6.10;99.90;;;;;;4450125;32;20405;-69
2022/01/17 05:29:37;;;;;;;0.50;0.50;;;6.10;99.90;;;;;;4452729;32;20045;-68
2022/01/17 05:32:04;;;;;;;0.65;0.62;;;6.10;99.90;;;;;;4453395;32;20118;-68
2022/01/17 05:34:40;;;;;;;1.95;0.93;;;6.10;99.90;;;;;;4453587;32;20064;-68
2022/01/17 05:37:06;;;;;;;0.75;0.75;;;6.10;99.90;;;;;;4452467;32;20358;-68
2022/01/17 05:39:33;;;;;;;0.45;0.45;;;6.00;99.90;;;;;;4449770;32;20101;-68
2022/01/17 05:41:58;;;;;;;0.50;0.50;;;6.00;99.90;;;;;;4452716;32;20085;-68
2022/01/17 05:44:24;;;;;;;0.30;0.30;;;6.10;99.90;;;;;;4449593;32;20763;-68
2022/01/17 05:46:49;;;;;;;0.68;0.52;;;6.10;99.90;;;;;;4441702;32;20439;-68
2022/01/17 05:49:14;;;;;;;1.02;0.55;;;6.10;99.90;;;;;;4442330;32;20086;-68
2022/01/17 05:51:40;;;;;;;0.40;0.40;;;6.00;99.90;;;;;;4441397;32;20084;-68
2022/01/17 05:54:05;;;;;;;8.48;2.15;;;6.10;99.90;;;;;;4441615;32;20084;-68
2022/01/17 05:56:31;;;;;;;0.30;0.30;;;6.00;99.90;;;;;;4440144;32;20515;-68
2022/01/17 05:58:56;;;;;;;1.55;0.68;;;6.10;99.90;;;;;;4440268;32;20112;-68
2022/01/17 06:01:22;;;;;;;1.17;0.73;;;6.10;99.90;;;;;;4433581;32;20190;-69
2022/01/17 06:03:49;;;;;;;0.60;0.60;;;6.20;99.90;;;;;;4430782;32;20088;-68
2022/01/17 06:06:14;;;;;;;1.87;1.48;;;6.20;99.90;;;;;;4437609;32;20065;-67
2022/01/17 06:08:42;;;;;;;0.75;0.60;;;6.10;99.90;;;;;;4438435;32;20522;-68
2022/01/17 06:11:07;;;;;;;0.30;0.30;;;6.10;99.90;;;;;;4439329;32;20414;-67
2022/01/17 06:13:33;;;;;;;0.57;0.57;;;6.10;99.90;;;;;;4440803;32;20076;-68
2022/01/17 06:15:58;;;;;;;0.80;0.80;;;6.10;99.90;;;;;;4440430;32;20058;-67
2022/01/17 06:18:24;;;;;;;2.55;0.88;;;6.10;99.90;;;;;;4424488;32;20057;-68
2022/01/17 06:20:50;;;;;;;0.62;0.62;;;6.10;99.90;;;;;;4440173;32;20068;-68
2022/01/17 06:23:16;;;;;;;0.30;0.30;;;6.10;99.90;;;;;;4435774;32;20119;-68
2022/01/17 06:25:42;;;;;;;0.30;0.30;;;6.10;99.90;;;;;;4430151;32;20227;-67
2022/01/17 06:28:07;;;;;;;0.37;0.37;;;6.10;99.90;;;;;;4421514;32;20069;-68
2022/01/17 06:30:33;;;;;;;0.70;0.68;;;6.00;99.90;;;;;;4422563;32;21054;-68
2022/01/17 06:32:59;;;;;;;0.30;0.30;;;6.10;99.90;;;;;;4419940;32;20062;-67
2022/01/17 06:35:26;;;;;;;0.30;0.30;;;6.00;99.90;;;;;;4435423;32;20088;-67
2022/01/17 06:37:52;;;;;;;8.90;1.08;;;6.00;99.90;;;;;;4432543;32;20069;-68
2022/01/17 06:40:19;;;;;;;0.60;0.60;;;6.00;99.90;;;;;;4433904;32;20094;-68
2022/01/17 06:42:45;;;;;;;0.30;0.30;;;5.90;99.90;;;;;;4434609;32;20181;-69
2022/01/17 06:45:13;;;;;;;0.40;0.40;;;5.90;99.90;;;;;;4425925;32;20082;-68
2022/01/17 06:47:39;;;;;;;0.80;0.43;;;5.90;99.90;;;;;;4437410;32;20146;-67
2022/01/17 06:50:08;;;;;;;0.30;0.30;;;5.90;99.90;;;;;;4429890;32;20092;-69
2022/01/17 06:52:34;;;;;;;0.45;0.45;;;5.90;99.90;;;;;;4432105;32;20590;-68
2022/01/17 06:55:00;;;;;;;0.85;0.82;;;5.80;99.90;;;;;;4425861;32;20103;-69
2022/01/17 06:57:25;;;;;;;0.40;0.40;;;5.80;99.90;;;;;;4426626;32;20108;-68
2022/01/17 06:59:52;;;;;;;0.37;0.37;;;5.80;99.90;;;;;;4423970;32;20478;-67
2022/01/17 07:02:18;;;;;;;2.05;0.68;;;5.70;99.90;;;;;;4404161;32;20069;-67
2022/01/17 07:04:44;;;;;;;0.28;0.28;;;5.70;99.90;;;;;;4423518;32;20093;-69
2022/01/17 07:07:11;;;;;;;0.68;0.68;;;5.70;99.90;;;;;;4424747;32;20352;-68
2022/01/17 07:09:36;;;;;;;0.30;0.30;;;5.70;99.90;;;;;;4423207;32;20457;-66
2022/01/17 07:12:04;;;;;;;0.32;0.32;;;5.70;99.90;;;;;;4426967;32;20085;-67
2022/01/17 07:14:29;;;;;;;0.30;0.30;;;5.80;99.90;;;;;;4426872;32;20093;-67
2022/01/17 07:16:56;;;;;;;0.20;0.20;;;5.90;99.90;;;;;;4420530;32;20590;-67
2022/01/17 07:19:22;;;;;;;0.20;0.20;;;5.90;99.90;;;;;;4422758;32;20080;-67
2022/01/17 07:21:49;;;;;;;0.30;0.30;;;5.90;99.90;;;;;;4428522;32;20072;-68
2022/01/17 07:24:15;;;;;;;2.78;0.43;;;5.90;99.90;;;;;;4426615;32;20148;-67
2022/01/17 07:26:40;;;;;;;0.30;0.30;;;6.00;99.90;;;;;;4421438;32;20196;-68
2022/01/17 07:29:08;;;;;;;0.40;0.40;;;6.00;99.90;;;;;;4421508;32;20219;-66
2022/01/17 07:31:34;;;;;;;0.37;0.37;;;6.00;99.90;;;;;;4424957;32;20122;-66
2022/01/17 07:34:00;;;;;;;1.55;0.95;;;5.90;99.90;;;;;;4424064;32;20095;-68
2022/01/17 07:36:26;;;;;;;0.43;0.43;;;5.90;99.90;;;;;;4427619;32;20093;-67
2022/01/17 07:38:52;;;;;;;0.37;0.37;;;5.90;99.90;;;;;;4424234;32;20096;-69
2022/01/17 07:41:18;;;;;;;25.67;0.60;;;6.00;99.90;;;;;;4425393;32;20084;-68
2022/01/17 07:43:44;;;;;;;0.35;0.35;;;6.00;99.90;;;;;;4422270;32;20084;-69
2022/01/17 07:46:33;;;;;;;0.40;0.40;;;6.00;99.90;;;;;;4429355;32;20266;-68
2022/01/17 07:48:58;;;;;;;1.60;1.50;;;6.00;99.90;;;;;;4413274;32;22522;-68
2022/01/17 07:51:26;;;;;;;0.30;0.30;;;6.00;99.90;;;;;;4422719;32;20082;-68
2022/01/17 07:53:53;;;;;;;0.30;0.30;;;6.00;99.90;;;;;;4420761;32;20321;-68
2022/01/17 07:56:18;;;;;;;0.30;0.30;;;6.00;99.90;;;;;;4423795;32;20065;-68
2022/01/17 07:58:44;;;;;;;3.83;1.10;;;6.00;99.90;;;;;;4425106;32;20060;-69
2022/01/17 08:01:10;;;;;;;0.32;0.32;;;6.00;99.90;;;;;;4423572;32;20093;-68
2022/01/17 08:03:36;;;;;;;2.35;1.27;;;6.00;99.90;;;;;;4413742;32;20196;-68
2022/01/17 08:06:02;;;;;;;0.30;0.30;;;6.00;99.90;;;;;;4426369;32;20081;-69
2022/01/17 08:08:27;;;;;;;0.20;0.20;;;6.00;99.90;;;;;;4425078;32;20085;-67
2022/01/17 08:10:53;;;;;;;0.30;0.30;;;6.10;99.90;;;;;;4422902;32;20124;-67
2022/01/17 08:13:19;;;;;;;0.30;0.30;;;6.10;99.90;;;;;;4416786;32;20093;-67
2022/01/17 08:15:46;;;;;;;0.35;0.35;;;6.10;99.90;;;;;;4424660;32;20308;-68
2022/01/17 08:18:13;;;;;;;0.30;0.30;;;6.10;99.90;;;;;;4426552;32;20101;-68
2022/01/17 08:20:40;;;;;;;0.30;0.30;;;6.10;99.90;;;;;;4417772;32;20449;-68
2022/01/17 08:23:05;;;;;;;0.30;0.30;;;6.10;99.90;;;;;;4416412;32;21197;-67
2022/01/17 08:25:31;;;;;;;1.73;0.60;;;6.10;99.90;;;;;;4412158;32;20085;-68
2022/01/17 08:27:57;;;;;;;2.17;1.55;;;6.10;99.90;;;;;;4417791;32;20129;-68
2022/01/17 08:30:23;;;;;;;0.40;0.40;;;6.10;99.90;;;;;;4416087;32;20538;-67
2022/01/17 08:32:49;;;;;;;0.37;0.37;;;6.10;99.90;;;;;;4419434;32;20501;-68
2022/01/17 08:35:14;;;;;;;0.30;0.30;;;6.10;99.90;;;;;;4422724;32;20077;-67
2022/01/17 08:37:40;;;;;;;0.30;0.30;;;6.10;99.90;;;;;;4422382;32;20085;-67
2022/01/17 08:40:08;;;;;;;0.50;0.50;;;6.10;99.90;;;;;;4430546;32;20164;-68
2022/01/17 08:42:36;;;;;;;6.85;2.40;;;6.10;99.90;;;;;;4425046;32;20147;-68
2022/01/17 08:45:03;;;;;;;0.40;0.40;;;6.20;99.90;;;;;;4425677;32;20153;-67
2022/01/17 08:47:28;;;;;;;2.42;1.23;;;6.20;99.90;;;;;;4422112;32;20176;-68
2022/01/17 08:49:54;;;;;;;1.55;0.65;;;6.20;99.90;;;;;;4420136;32;20089;-68
2022/01/17 08:52:20;;;;;;;0.30;0.30;;;6.20;99.90;;;;;;4403973;32;20097;-67
2022/01/17 08:54:46;;;;;;;0.30;0.30;;;6.30;99.90;;;;;;4410848;32;20348;-68
2022/01/17 08:57:12;;;;;;;0.30;0.30;;;6.30;99.90;;;;;;4410182;32;20836;-68
2022/01/17 08:59:37;;;;;;;0.43;0.43;;;6.20;99.90;;;;;;4400057;32;20557;-67
2022/01/17 09:02:04;;;;;;;2.62;1.37;;;6.20;99.90;;;;;;4413746;32;20077;-67
2022/01/17 09:04:31;;;;;;;0.40;0.40;;;6.20;99.90;;;;;;4416045;32;20227;-67
2022/01/17 09:06:56;;;;;;;0.30;0.30;;;6.30;99.90;;;;;;4407673;32;21040;-67
2022/01/17 09:09:22;;;;;;;0.28;0.28;;;6.30;99.90;;;;;;4411901;32;20077;-69
2022/01/17 09:11:47;;;;;;;0.47;0.47;;;6.30;99.90;;;;;;4407945;32;20096;-67
2022/01/17 09:14:14;;;;;;;4.60;0.73;;;6.30;99.90;;;;;;4413486;32;20085;-66
2022/01/17 09:16:43;;;;;;;0.65;0.65;;;6.30;99.90;;;;;;4409437;32;20143;-67
2022/01/17 09:19:09;;;;;;;1.25;0.60;;;6.30;99.90;;;;;;4406798;32;20151;-67
2022/01/17 09:21:34;;;;;;;1.08;0.88;;;6.30;99.90;;;;;;4408934;32;20809;-68
2022/01/17 09:24:00;;;;;;;0.25;0.25;;;6.30;99.90;;;;;;4400401;32;20666;-67
2022/01/17 09:26:27;;;;;;;0.30;0.30;;;6.30;99.90;;;;;;4414015;32;20843;-68
2022/01/17 09:28:55;;;;;;;0.30;0.30;;;6.30;99.90;;;;;;4410485;32;20814;-68
2022/01/17 09:31:21;;;;;;;0.30;0.30;;;6.30;99.90;;;;;;4410648;32;20809;-68
2022/01/17 09:33:47;;;;;;;0.22;0.22;;;6.30;99.90;;;;;;4412850;32;20110;-67
2022/01/17 09:36:14;;;;;;;0.30;0.30;;;6.40;99.90;;;;;;4415972;32;20223;-67
2022/01/17 09:38:39;;;;;;;0.20;0.20;;;6.40;99.90;;;;;;4409864;32;20088;-66
2022/01/17 09:41:05;;;;;;;0.30;0.30;;;6.40;99.90;;;;;;4407642;32;20113;-68
2022/01/17 09:43:31;;;;;;;0.30;0.30;;;6.50;99.90;;;;;;4410899;32;20117;-67
2022/01/17 09:45:57;;;;;;;0.30;0.30;;;6.50;99.90;;;;;;4413928;32;20596;-67
2022/01/17 09:48:33;;;;;;;0.30;0.30;;;6.50;99.90;;;;;;4409889;32;20085;-66
2022/01/17 09:51:15;;;;;;;0.20;0.20;;;6.50;99.90;;;;;;4415417;32;20552;-66
2022/01/17 09:53:42;;;;;;;0.20;0.20;;;6.50;99.90;;;;;;4420716;32;20248;-67
2022/01/17 09:56:10;;;;;;;10.30;0.85;;;6.50;99.90;;;;;;4414370;32;21016;-66
2022/01/17 09:58:38;;;;;;;0.30;0.30;;;6.50;99.90;;;;;;4418878;32;20096;-66
2022/01/17 10:01:04;;;;;;;0.20;0.20;;;6.40;99.90;;;;;;4417639;32;20081;-67
2022/01/17 10:03:31;;;;;;;0.30;0.30;;;6.50;99.90;;;;;;4420742;32;20153;-67
2022/01/17 10:05:57;;;;;;;0.28;0.28;;;6.50;99.90;;;;;;4421314;32;20088;-67
2022/01/17 10:08:24;;;;;;;0.30;0.30;;;6.60;99.90;;;;;;4415760;32;20127;-67
2022/01/17 10:10:57;;;;;;;0.20;0.20;;;6.60;99.90;;;;;;4414844;32;20148;-66
2022/01/17 10:13:29;;;;;;;0.30;0.30;;;6.60;99.90;;;;;;4419257;32;20105;-66
2022/01/17 10:16:14;;;;;;;0.30;0.30;;;6.60;99.90;;;;;;4422915;32;20102;-66
2022/01/17 10:18:42;;;;;;;0.30;0.30;;;6.50;99.90;;;;;;4423700;32;20115;-67
2022/01/17 10:21:16;;;;;;;0.62;0.50;;;6.50;99.90;;;;;;4421667;32;20073;-66
2022/01/17 10:24:18;;;;;;;0.30;0.30;;;6.50;99.90;;;;;;4406682;32;20077;-66
2022/01/17 10:29:39;;;;;;;7.50;0.50;;;6.30;99.90;;;;;;4410930;32;20077;-66
2022/01/17 10:34:55;;;;;;;0.28;0.28;;;6.10;99.90;;;;;;4410233;32;20109;-67
2022/01/17 10:37:24;;;;;;;0.30;0.30;;;6.20;99.90;;;;;;4407180;32;20077;-68
2022/01/17 10:39:55;;;;;;;2.55;0.82;;;6.20;99.90;;;;;;4415491;32;20073;-67
2022/01/17 10:42:41;;;;;;;0.40;0.40;;;6.20;99.90;;;;;;4408290;32;20093;-67
2022/01/17 10:45:11;;;;;;;7.03;2.15;;;6.30;99.90;;;;;;4403394;32;20156;-68
2022/01/17 10:47:42;;;;;;;3.60;0.40;;;6.30;99.90;;;;;;4412968;32;20089;-68
2022/01/17 10:50:15;;;;;;;0.30;0.30;;;6.40;99.90;;;;;;4410059;32;20097;-67
2022/01/17 10:52:45;;;;;;;0.30;0.30;;;6.40;99.90;;;;;;4401351;32;20530;-67
2022/01/17 10:55:29;;;;;;;2.08;0.52;;;6.50;99.90;;;;;;4403007;32;20208;-67
2022/01/17 10:57:57;;;;;;;0.85;0.80;;;6.50;99.90;;;;;;4406667;32;20805;-68
2022/01/17 11:00:26;;;;;;;0.40;0.40;;;6.50;99.90;;;;;;4412633;32;20086;-68
2022/01/17 11:02:57;;;;;;;0.40;0.40;;;6.50;99.90;;;;;;4386092;32;20621;-68
2022/01/17 11:05:22;;;;;;;0.30;0.30;;;6.50;99.90;;;;;;4411515;32;20089;-68
2022/01/17 11:07:53;;;;;;;0.60;0.60;;;6.50;99.90;;;;;;4419419;32;20530;-68
2022/01/17 11:10:22;;;;;;;0.20;0.20;;;6.60;99.90;;;;;;4409012;32;20958;-68
2022/01/17 11:12:50;;;;;;;0.20;0.20;;;6.70;99.90;;;;;;4408773;32;22013;-68
2022/01/17 11:15:15;;;;;;;0.65;0.65;;;6.90;99.90;;;;;;4416450;32;20140;-68
2022/01/17 11:17:48;;;;;;;0.30;0.30;;;6.90;99.90;;;;;;4409049;32;20545;-67
2022/01/17 11:20:15;;;;;;;1.92;1.75;;;7.00;99.90;;;;;;4418710;32;20077;-68
2022/01/17 11:22:44;;;;;;;0.85;0.70;;;7.10;99.90;;;;;;4427614;32;20184;-66
2022/01/17 11:25:13;;;;;;;1.85;0.77;;;7.30;99.90;;;;;;4410648;32;20081;-66
2022/01/17 11:27:39;;;;;;;0.50;0.50;;;7.50;99.90;;;;;;4427557;32;20608;-68
2022/01/17 11:30:06;;;;;;;0.28;0.28;;;7.60;99.90;;;;;;4425209;32;20097;-69
2022/01/17 11:32:32;;;;;;;0.20;0.20;;;7.60;99.90;;;;;;4431341;32;20467;-68
2022/01/17 11:35:01;;;;;;;0.30;0.30;;;7.50;99.90;;;;;;4427794;32;20093;-67
2022/01/17 11:37:31;;;;;;;0.37;0.37;;;7.10;99.90;;;;;;4431747;32;20096;-67
2022/01/17 11:39:58;;;;;;;4.57;2.15;;;6.60;99.90;;;;;;4433801;32;20165;-68
2022/01/17 11:42:43;;;;;;;0.40;0.40;;;6.40;99.90;;;;;;4431117;32;20066;-67
2022/01/17 11:45:30;;;;;;;0.30;0.30;;;6.10;99.90;;;;;;4422601;32;20133;-67
2022/01/17 11:47:57;;;;;;;0.47;0.47;;;5.80;99.90;;;;;;4420955;32;20105;-68
2022/01/17 11:50:36;;;;;;;0.30;0.30;;;5.60;99.90;;;;;;4422187;32;21028;-67
2022/01/17 11:53:20;;;;;;;3.53;1.45;;;5.50;99.90;;;;;;4406507;32;20109;-67
2022/01/17 11:55:48;;;;;;;0.50;0.50;;;5.50;99.90;;;;;;4413381;32;20362;-66
2022/01/17 11:58:36;;;;;;;2.05;0.50;;;5.40;99.90;;;;;;4401697;32;21003;-67
2022/01/17 12:01:04;;;;;;;0.35;0.35;;;5.30;99.90;;;;;;4409586;32;20073;-68
2022/01/17 12:03:51;;;;;;;0.40;0.40;;;5.20;99.90;;;;;;4418411;32;20085;-67
2022/01/17 12:06:20;;;;;;;0.20;0.20;;;5.20;99.90;;;;;;4415680;32;20065;-67
2022/01/17 12:08:47;;;;;;;0.30;0.30;;;5.30;99.90;;;;;;4420538;32;20220;-67
2022/01/17 12:11:30;;;;;;;0.75;0.75;;;5.30;99.90;;;;;;4412669;32;20081;-67
2022/01/17 12:14:02;;;;;;;0.30;0.30;;;5.20;99.90;;;;;;4417981;32;20546;-67
2022/01/17 12:16:33;;;;;;;0.30;0.30;;;5.20;99.90;;;;;;4418276;32;20114;-67
2022/01/17 12:19:03;;;;;;;2.50;0.88;;;5.20;99.90;;;;;;4410411;32;20730;-65
2022/01/17 12:21:35;;;;;;;3.60;1.62;;;5.20;99.90;;;;;;4415339;32;20089;-68
2022/01/17 12:24:21;;;;;;;4.12;1.75;;;5.20;99.90;;;;;;4421275;32;20233;-67
2022/01/17 12:27:01;;;;;;;0.37;0.37;;;5.20;99.90;;;;;;4410978;32;20583;-66
2022/01/17 12:29:51;;;;;;;0.40;0.40;;;5.20;99.90;;;;;;4421377;32;20072;-67
2022/01/17 12:32:26;;;;;;;1.05;0.77;;;5.10;99.90;;;;;;4420186;32;20105;-67
2022/01/17 12:34:54;;;;;;;0.45;0.45;;;5.20;99.90;;;;;;4424606;32;20503;-67
2022/01/17 12:37:41;;;;;;;0.32;0.32;;;5.30;99.90;;;;;;4422496;32;20799;-67
2022/01/17 12:40:14;;;;;;;0.30;0.30;;;5.30;99.90;;;;;;4420760;32;20728;-67
2022/01/17 12:43:04;;;;;;;0.35;0.35;;;5.30;99.90;;;;;;4427845;32;20080;-67
2022/01/17 12:45:35;;;;;;;5.72;1.05;;;5.30;99.90;;;;;;4416947;32;20081;-67
2022/01/17 12:48:05;;;;;;;0.30;0.30;;;5.30;99.90;;;;;;4415806;32;20127;-66
2022/01/17 12:50:32;;;;;;;0.40;0.40;;;5.20;99.90;;;;;;4415161;32;20093;-68
2022/01/17 12:53:01;;;;;;;0.40;0.40;;;5.30;99.90;;;;;;4420067;32;20098;-68
2022/01/17 12:55:34;;;;;;;0.30;0.30;;;5.40;99.90;;;;;;4427185;32;20081;-68
2022/01/17 12:57:59;;;;;;;0.30;0.30;;;5.30;99.90;;;;;;4422459;32;20628;-68
2022/01/17 13:00:27;;;;;;;0.60;0.60;;;5.30;99.90;;;;;;4421396;32;20196;-68
2022/01/17 13:02:54;;;;;;;1.20;0.93;;;5.30;99.90;;;;;;4431115;32;20068;-68
2022/01/17 13:05:23;;;;;;;0.35;0.35;;;5.30;99.90;;;;;;4426189;32;20061;-68
2022/01/17 13:07:50;;;;;;;0.30;0.30;;;5.30;99.90;;;;;;4434619;32;20119;-68
2022/01/17 13:10:16;;;;;;;0.77;0.77;;;5.30;99.90;;;;;;4430394;32;20081;-68
2022/01/17 13:12:42;;;;;;;3.28;1.00;;;5.40;99.90;;;;;;4429752;32;20092;-68
2022/01/17 13:15:10;;;;;;;1.25;0.93;;;5.40;99.90;;;;;;4432462;32;20150;-67
2022/01/17 13:17:36;;;;;;;0.30;0.30;;;5.40;99.90;;;;;;4426372;32;20076;-67
2022/01/17 13:20:04;;;;;;;0.30;0.30;;;5.30;99.90;;;;;;4428484;32;20089;-68